createdAt,value
2023-05-22T00:01:06.887Z,11.85
2023-05-22T00:03:33.880Z,9.45
2023-05-22T00:06:00.615Z,10.68
2023-05-22T00:08:29.644Z,9.15
2023-05-22T00:10:56.623Z,9.65
2023-05-22T00:13:23.198Z,10.57
2023-05-22T00:15:49.902Z,8.80
2023-05-22T00:18:16.510Z,10.55
2023-05-22T00:20:46.354Z,11.15
2023-05-22T00:23:15.570Z,10.10
2023-05-22T00:25:42.444Z,9.50
2023-05-22T00:28:09.045Z,11.35
2023-05-22T00:30:37.251Z,8.80
2023-05-22T00:33:04.140Z,9.80
2023-05-22T00:35:31.123Z,10.90
2023-05-22T00:37:57.786Z,9.55
2023-05-22T00:40:24.354Z,8.30
2023-05-22T00:42:50.896Z,12.82
2023-05-22T00:45:17.545Z,10.15
2023-05-22T00:47:44.350Z,11.07
2023-05-22T00:50:11.982Z,8.90
2023-05-22T00:52:42.110Z,10.10
2023-05-22T00:55:10.161Z,8.98
2023-05-22T00:57:38.578Z,14.52
2023-05-22T01:00:06.634Z,10.65
2023-05-22T01:02:33.461Z,13.82
2023-05-22T01:05:00.164Z,11.85
2023-05-22T01:07:26.707Z,11.88
2023-05-22T01:09:53.291Z,15.25
2023-05-22T01:12:29.996Z,10.85
2023-05-22T01:15:02.802Z,12.60
2023-05-22T01:17:34.937Z,10.77
2023-05-22T01:20:26.551Z,12.37
2023-05-22T01:23:15.013Z,14.63
2023-05-22T01:25:56.652Z,10.07
2023-05-22T01:28:53.583Z,10.60
2023-05-22T01:31:27.123Z,11.07
2023-05-22T01:33:56.956Z,10.88
2023-05-22T01:36:28.784Z,11.80
2023-05-22T01:38:56.462Z,14.23
2023-05-22T01:41:23.451Z,12.85
2023-05-22T01:43:50.060Z,15.02
2023-05-22T01:46:16.653Z,14.38
2023-05-22T01:48:43.219Z,12.40
2023-05-22T01:51:15.994Z,15.20
2023-05-22T01:53:57.450Z,12.77
2023-05-22T01:56:34.574Z,11.10
2023-05-22T01:59:09.436Z,10.85
2023-05-22T02:01:38.314Z,12.75
2023-05-22T02:04:06.570Z,11.48
2023-05-22T02:06:33.740Z,10.40
2023-05-22T02:09:02.910Z,11.55
2023-05-22T02:11:32.866Z,10.63
2023-05-22T02:14:00.034Z,11.52
2023-05-22T02:16:28.777Z,11.15
2023-05-22T02:19:06.342Z,12.05
2023-05-22T02:21:34.320Z,9.95
2023-05-22T02:24:01.364Z,11.27
2023-05-22T02:26:28.288Z,9.73
2023-05-22T02:28:54.865Z,13.43
2023-05-22T02:31:21.534Z,11.52
2023-05-22T02:33:48.469Z,13.88
2023-05-22T02:36:15.033Z,13.77
2023-05-22T02:38:41.592Z,13.45
2023-05-22T02:41:08.371Z,11.20
2023-05-22T02:43:34.898Z,11.85
2023-05-22T02:46:01.530Z,10.80
2023-05-22T02:48:29.367Z,11.82
2023-05-22T02:50:55.940Z,12.40
2023-05-22T02:53:22.513Z,12.40
2023-05-22T02:55:49.113Z,9.05
2023-05-22T02:58:15.780Z,8.93
2023-05-22T03:00:43.302Z,14.57
2023-05-22T03:03:10.374Z,10.95
2023-05-22T03:05:37.448Z,10.68
2023-05-22T03:08:04.042Z,11.13
2023-05-22T03:10:31.120Z,8.45
2023-05-22T03:12:57.711Z,11.10
2023-05-22T03:15:24.278Z,11.45
2023-05-22T03:17:50.945Z,8.77
2023-05-22T03:20:17.852Z,9.70
2023-05-22T03:22:44.423Z,10.18
2023-05-22T03:25:11.062Z,10.32
2023-05-22T03:27:39.486Z,9.02
2023-05-22T03:30:06.757Z,8.85
2023-05-22T03:32:37.137Z,11.35
2023-05-22T03:35:05.202Z,10.52
2023-05-22T03:37:31.782Z,11.90
2023-05-22T03:39:58.373Z,14.50
2023-05-22T03:42:24.902Z,9.18
2023-05-22T03:44:51.485Z,10.68
2023-05-22T03:47:17.977Z,10.43
2023-05-22T03:49:44.579Z,11.43
2023-05-22T03:52:11.384Z,14.48
2023-05-22T03:54:37.894Z,12.05
2023-05-22T03:57:05.791Z,12.93
2023-05-22T03:59:32.281Z,11.05
2023-05-22T04:02:01.254Z,12.25
2023-05-22T04:04:28.477Z,11.27
2023-05-22T04:06:58.252Z,14.00
2023-05-22T04:09:31.427Z,14.45
2023-05-22T04:11:58.538Z,13.45
2023-05-22T04:14:25.044Z,13.25
2023-05-22T04:16:51.596Z,16.13
2023-05-22T04:19:18.287Z,12.57
2023-05-22T04:21:45.215Z,14.15
2023-05-22T04:24:11.718Z,14.68
2023-05-22T04:26:41.734Z,11.85
2023-05-22T04:29:10.511Z,14.93
2023-05-22T04:31:37.410Z,15.55
2023-05-22T04:34:04.235Z,12.02
2023-05-22T04:36:31.143Z,12.93
2023-05-22T04:38:57.777Z,11.93
2023-05-22T04:41:26.653Z,12.60
2023-05-22T04:43:54.549Z,15.15
2023-05-22T04:46:21.240Z,15.50
2023-05-22T04:48:47.883Z,12.02
2023-05-22T04:51:14.530Z,12.43
2023-05-22T04:53:41.104Z,13.88
2023-05-22T04:56:07.793Z,19.50
2023-05-22T04:58:34.257Z,12.80
2023-05-22T05:01:00.895Z,22.17
2023-05-22T05:03:28.477Z,18.25
2023-05-22T05:05:55.137Z,14.70
2023-05-22T05:08:21.724Z,17.80
2023-05-22T05:10:48.292Z,16.55
2023-05-22T05:13:14.921Z,14.50
2023-05-22T05:15:41.400Z,13.85
2023-05-22T05:18:08.008Z,14.23
2023-05-22T05:20:34.565Z,16.52
2023-05-22T05:23:01.144Z,12.63
2023-05-22T05:25:27.966Z,16.10
2023-05-22T05:27:54.528Z,11.82
2023-05-22T05:30:21.137Z,11.50
2023-05-22T05:32:47.685Z,13.15
2023-05-22T05:35:14.400Z,13.35
2023-05-22T05:37:41.778Z,10.45
2023-05-22T05:40:09.220Z,8.65
2023-05-22T05:42:35.966Z,14.60
2023-05-22T05:45:02.515Z,10.70
2023-05-22T05:47:29.794Z,15.80
2023-05-22T05:49:56.364Z,14.45
2023-05-22T05:52:22.915Z,12.18
2023-05-22T05:54:49.423Z,13.07
2023-05-22T05:57:16.482Z,15.05
2023-05-22T05:59:43.021Z,14.15
2023-05-22T06:02:09.857Z,16.05
2023-05-22T06:04:36.780Z,14.57
2023-05-22T06:07:03.300Z,14.90
2023-05-22T06:09:29.772Z,13.20
2023-05-22T06:11:56.337Z,10.80
2023-05-22T06:14:22.865Z,15.82
2023-05-22T06:16:49.434Z,16.48
2023-05-22T06:19:16.226Z,10.25
2023-05-22T06:21:42.840Z,12.40
2023-05-22T06:24:09.564Z,9.80
2023-05-22T06:26:36.205Z,13.13
2023-05-22T06:29:02.705Z,10.90
2023-05-22T06:31:29.404Z,9.75
2023-05-22T06:33:56.176Z,11.15
2023-05-22T06:36:22.809Z,18.17
2023-05-22T06:38:49.699Z,12.15
2023-05-22T06:41:16.273Z,10.30
2023-05-22T06:43:42.744Z,13.23
2023-05-22T06:46:09.517Z,10.82
2023-05-22T06:48:36.259Z,15.75
2023-05-22T06:51:02.948Z,10.68
2023-05-22T06:53:29.654Z,11.75
2023-05-22T06:55:56.834Z,8.18
2023-05-22T06:58:23.369Z,12.57
2023-05-22T07:00:49.957Z,7.85
2023-05-22T07:03:16.636Z,8.43
2023-05-22T07:05:43.280Z,14.65
2023-05-22T07:08:10.396Z,9.48
2023-05-22T07:10:37.086Z,7.93
2023-05-22T07:13:03.950Z,7.53
2023-05-22T07:15:30.518Z,8.52
2023-05-22T07:17:57.171Z,9.10
2023-05-22T07:20:25.691Z,12.68
2023-05-22T07:22:52.217Z,10.30
2023-05-22T07:25:18.709Z,9.45
2023-05-22T07:27:45.264Z,6.90
2023-05-22T07:30:12.363Z,6.75
2023-05-22T07:32:39.025Z,13.00
2023-05-22T07:35:06.110Z,7.75
2023-05-22T07:37:32.895Z,6.80
2023-05-22T07:39:59.493Z,6.93
2023-05-22T07:42:27.299Z,8.32
2023-05-22T07:44:53.772Z,3.97
2023-05-22T07:47:20.351Z,4.47
2023-05-22T07:49:46.961Z,6.88
2023-05-22T07:52:13.489Z,8.23
2023-05-22T07:54:41.523Z,4.38
2023-05-22T07:57:08.994Z,3.55
2023-05-22T07:59:37.574Z,5.15
2023-05-22T08:02:04.393Z,3.60
2023-05-22T08:04:31.121Z,5.00
2023-05-22T08:06:57.733Z,4.55
2023-05-22T08:09:24.312Z,4.35
2023-05-22T08:11:50.867Z,3.95
2023-05-22T08:14:17.414Z,4.45
2023-05-22T08:16:44.009Z,5.32
2023-05-22T08:19:11.118Z,5.80
2023-05-22T08:21:37.945Z,4.25
2023-05-22T08:24:04.597Z,7.38
2023-05-22T08:26:33.282Z,5.90
2023-05-22T08:29:00.531Z,3.88
2023-05-22T08:31:29.333Z,5.40
2023-05-22T08:34:02.478Z,5.70
2023-05-22T08:36:34.037Z,3.90
2023-05-22T08:39:01.449Z,3.58
2023-05-22T08:41:29.408Z,4.30
2023-05-22T08:43:56.010Z,4.80
2023-05-22T08:46:26.210Z,6.07
2023-05-22T08:48:57.055Z,5.25
2023-05-22T08:51:28.358Z,6.60
2023-05-22T08:53:58.931Z,4.78
2023-05-22T08:56:28.644Z,6.00
2023-05-22T08:58:57.386Z,4.00
2023-05-22T09:01:24.689Z,5.50
2023-05-22T09:03:51.764Z,4.78
2023-05-22T09:06:18.622Z,4.93
2023-05-22T09:08:46.035Z,3.92
2023-05-22T09:11:13.266Z,5.22
2023-05-22T09:13:41.287Z,6.40
2023-05-22T09:16:12.754Z,4.88
2023-05-22T09:18:40.185Z,4.93
2023-05-22T09:21:14.786Z,8.05
2023-05-22T09:23:53.936Z,4.65
2023-05-22T09:26:21.036Z,5.32
2023-05-22T09:28:47.657Z,5.57
2023-05-22T09:31:14.624Z,4.35
2023-05-22T09:33:44.152Z,6.28
2023-05-22T09:36:11.056Z,5.43
2023-05-22T09:38:37.684Z,4.15
2023-05-22T09:41:04.215Z,3.58
2023-05-22T09:43:31.225Z,3.80
2023-05-22T09:46:01.722Z,4.95
2023-05-22T09:48:28.646Z,5.90
2023-05-22T09:50:56.112Z,6.07
2023-05-22T09:53:27.942Z,4.72
2023-05-22T09:55:56.768Z,3.53
2023-05-22T09:58:25.231Z,4.20
2023-05-22T10:00:52.958Z,5.85
2023-05-22T10:03:23.339Z,6.38
2023-05-22T10:05:52.466Z,3.95
2023-05-22T10:08:23.370Z,3.33
2023-05-22T10:10:53.266Z,3.40
2023-05-22T10:13:20.873Z,6.28
2023-05-22T10:15:49.098Z,2.58
2023-05-22T10:18:17.275Z,6.50
2023-05-22T10:20:46.846Z,4.32
2023-05-22T10:23:16.522Z,3.58
2023-05-22T10:25:44.611Z,5.30
2023-05-22T10:28:13.393Z,6.10
2023-05-22T10:30:40.179Z,2.78
2023-05-22T10:33:14.578Z,3.33
2023-05-22T10:35:55.426Z,4.30
2023-05-22T10:38:24.737Z,3.40
2023-05-22T10:40:51.624Z,4.38
2023-05-22T10:43:18.455Z,2.75
2023-05-22T10:45:46.737Z,5.00
2023-05-22T10:48:13.646Z,3.72
2023-05-22T10:50:41.041Z,3.20
2023-05-22T10:53:28.041Z,4.38
2023-05-22T10:55:56.943Z,2.97
2023-05-22T10:58:28.716Z,7.63
2023-05-22T11:01:21.441Z,2.72
2023-05-22T11:04:10.600Z,5.05
2023-05-22T11:06:47.132Z,3.58
2023-05-22T11:09:29.876Z,4.07
2023-05-22T11:12:25.587Z,3.47
2023-05-22T11:14:53.410Z,4.00
2023-05-22T11:17:24.098Z,3.88
2023-05-22T11:20:00.708Z,2.83
2023-05-22T11:22:51.218Z,2.70
2023-05-22T11:25:19.375Z,4.43
2023-05-22T11:27:47.763Z,4.50
2023-05-22T11:30:15.675Z,3.00
2023-05-22T11:32:48.023Z,5.15
2023-05-22T11:35:15.703Z,2.90
2023-05-22T11:37:42.281Z,3.00
2023-05-22T11:40:09.991Z,2.20
2023-05-22T11:42:37.736Z,3.25
2023-05-22T11:45:05.260Z,5.78
2023-05-22T11:47:31.957Z,5.28
2023-05-22T11:49:59.918Z,5.70
2023-05-22T11:52:31.600Z,6.03
2023-05-22T11:55:02.429Z,3.13
2023-05-22T11:57:29.035Z,2.63
2023-05-22T11:59:56.031Z,2.50
2023-05-22T12:02:22.648Z,2.30
2023-05-22T12:04:54.604Z,3.35
2023-05-22T12:07:22.479Z,6.00
2023-05-22T12:09:49.263Z,3.60
2023-05-22T12:12:16.271Z,2.45
2023-05-22T12:14:46.024Z,4.63
2023-05-22T12:17:13.401Z,2.85
2023-05-22T12:19:41.200Z,3.78
2023-05-22T12:22:08.998Z,4.03
2023-05-22T12:24:46.041Z,3.85
2023-05-22T12:27:13.497Z,5.07
2023-05-22T12:29:41.145Z,4.38
2023-05-22T12:32:11.879Z,3.90
2023-05-22T12:34:48.098Z,4.55
2023-05-22T12:37:22.840Z,2.65
2023-05-22T12:39:57.512Z,4.28
2023-05-22T12:42:24.943Z,3.45
2023-05-22T12:44:56.615Z,3.80
2023-05-22T12:47:24.538Z,3.13
2023-05-22T12:49:51.619Z,4.05
2023-05-22T12:52:18.188Z,5.57
2023-05-22T12:54:44.895Z,4.50
2023-05-22T12:57:11.492Z,4.15
2023-05-22T12:59:38.057Z,3.58
2023-05-22T13:02:05.539Z,6.95
2023-05-22T13:04:32.479Z,4.72
2023-05-22T13:06:59.084Z,3.25
2023-05-22T13:09:25.958Z,4.18
2023-05-22T13:11:52.551Z,3.83
2023-05-22T13:14:19.395Z,3.45
2023-05-22T13:16:45.970Z,3.78
2023-05-22T13:19:12.587Z,4.30
2023-05-22T13:21:39.182Z,4.43
2023-05-22T13:24:05.848Z,3.30
2023-05-22T13:26:32.371Z,3.70
2023-05-22T13:28:58.902Z,1.70
2023-05-22T13:31:25.519Z,3.63
2023-05-22T13:33:52.273Z,3.30
2023-05-22T13:36:19.035Z,4.45
2023-05-22T13:38:45.694Z,3.10
2023-05-22T13:41:12.397Z,6.50
2023-05-22T13:43:38.870Z,3.35
2023-05-22T13:46:05.654Z,6.18
2023-05-22T13:48:32.238Z,3.22
2023-05-22T13:50:58.766Z,3.10
2023-05-22T13:53:25.356Z,4.25
2023-05-22T13:55:51.866Z,6.90
2023-05-22T13:58:18.337Z,4.15
2023-05-22T14:00:44.824Z,3.42
2023-05-22T14:03:17.291Z,4.30
2023-05-22T14:05:45.390Z,4.45
2023-05-22T14:08:12.621Z,5.75
2023-05-22T14:10:39.662Z,5.25
2023-05-22T14:13:06.419Z,4.57
2023-05-22T14:15:33.024Z,3.95
2023-05-22T14:17:59.908Z,4.63
2023-05-22T14:20:26.758Z,5.57
2023-05-22T14:22:57.501Z,7.88
2023-05-22T14:25:26.286Z,7.20
2023-05-22T14:27:54.176Z,3.70
2023-05-22T14:30:20.731Z,4.68
2023-05-22T14:32:47.540Z,3.97
2023-05-22T14:35:14.186Z,4.57
2023-05-22T14:37:40.771Z,5.32
2023-05-22T14:40:08.225Z,3.97
2023-05-22T14:42:36.099Z,5.60
2023-05-22T14:45:03.924Z,10.93
2023-05-22T14:47:30.455Z,3.60
2023-05-22T14:50:03.092Z,4.53
2023-05-22T14:52:43.497Z,6.35
2023-05-22T14:55:10.097Z,7.28
2023-05-22T14:57:36.607Z,4.85
2023-05-22T15:00:04.935Z,4.95
2023-05-22T15:02:31.559Z,4.75
2023-05-22T15:04:58.086Z,6.93
2023-05-22T15:07:29.399Z,4.65
2023-05-22T15:10:07.886Z,8.95
2023-05-22T15:12:34.435Z,7.93
2023-05-22T15:15:01.562Z,6.88
2023-05-22T15:17:28.135Z,6.55
2023-05-22T15:19:54.615Z,5.30
2023-05-22T15:22:21.116Z,6.38
2023-05-22T15:24:48.174Z,6.88
2023-05-22T15:27:14.894Z,6.43
2023-05-22T15:29:41.986Z,6.05
2023-05-22T15:32:09.203Z,6.50
2023-05-22T15:34:36.046Z,6.38
2023-05-22T15:37:02.545Z,5.10
2023-05-22T15:39:29.668Z,6.00
2023-05-22T15:42:05.879Z,5.50
2023-05-22T15:44:33.210Z,4.90
2023-05-22T15:46:59.746Z,6.68
2023-05-22T15:49:28.033Z,8.98
2023-05-22T15:51:58.358Z,6.60
2023-05-22T15:54:24.974Z,7.40
2023-05-22T15:56:51.594Z,7.80
2023-05-22T15:59:18.128Z,5.90
2023-05-22T16:01:44.774Z,8.00
2023-05-22T16:04:11.527Z,7.28
2023-05-22T16:06:38.032Z,7.30
2023-05-22T16:09:04.561Z,6.82
2023-05-22T16:11:31.192Z,7.35
2023-05-22T16:13:57.756Z,8.82
2023-05-22T16:16:24.334Z,10.45
2023-05-22T16:18:50.993Z,7.35
2023-05-22T16:21:17.494Z,7.32
2023-05-22T16:23:44.035Z,8.27
2023-05-22T16:26:10.637Z,7.10
2023-05-22T16:28:37.189Z,9.02
2023-05-22T16:31:06.114Z,7.18
2023-05-22T16:33:34.422Z,13.60
2023-05-22T16:36:02.660Z,9.15
2023-05-22T16:38:29.254Z,8.13
2023-05-22T16:40:55.975Z,11.27
2023-05-22T16:43:22.489Z,7.70
2023-05-22T16:45:51.169Z,8.45
2023-05-22T16:48:18.280Z,9.88
2023-05-22T16:50:46.615Z,8.00
2023-05-22T16:53:16.677Z,8.70
2023-05-22T16:55:43.465Z,9.00
2023-05-22T16:58:11.568Z,7.45
2023-05-22T17:00:40.142Z,7.47
2023-05-22T17:03:08.418Z,7.18
2023-05-22T17:05:36.660Z,7.57
2023-05-22T17:08:03.447Z,8.63
2023-05-22T17:10:30.071Z,6.63
2023-05-22T17:12:56.717Z,9.63
2023-05-22T17:15:23.509Z,9.40
2023-05-22T17:17:50.792Z,7.90
2023-05-22T17:20:17.472Z,8.05
2023-05-22T17:22:44.061Z,7.57
2023-05-22T17:25:10.621Z,9.68
2023-05-22T17:27:37.199Z,10.02
2023-05-22T17:30:04.992Z,11.65
2023-05-22T17:32:31.804Z,12.63
2023-05-22T17:34:58.651Z,15.32
2023-05-22T17:37:25.183Z,15.90
2023-05-22T17:39:51.844Z,11.43
2023-05-22T17:42:18.417Z,11.60
2023-05-22T17:44:45.090Z,10.57
2023-05-22T17:47:13.305Z,12.13
2023-05-22T17:49:39.823Z,14.85
2023-05-22T17:52:08.652Z,11.27
2023-05-22T17:54:35.752Z,11.73
2023-05-22T17:57:04.098Z,10.52
2023-05-22T17:59:32.491Z,12.80
2023-05-22T18:01:59.156Z,12.93
2023-05-22T18:04:26.037Z,11.52
2023-05-22T18:06:52.711Z,11.48
2023-05-22T18:09:19.268Z,10.32
2023-05-22T18:11:45.893Z,12.77
2023-05-22T18:14:12.637Z,15.32
2023-05-22T18:16:39.231Z,12.05
2023-05-22T18:19:05.863Z,10.57
2023-05-22T18:21:32.364Z,11.18
2023-05-22T18:23:59.017Z,11.52
2023-05-22T18:26:26.712Z,16.83
2023-05-22T18:28:53.318Z,11.35
2023-05-22T18:31:20.018Z,10.07
2023-05-22T18:33:46.644Z,10.32
2023-05-22T18:36:13.397Z,18.83
2023-05-22T18:38:39.905Z,9.23
2023-05-22T18:41:07.211Z,11.55
2023-05-22T18:43:33.804Z,12.35
2023-05-22T18:46:00.517Z,13.27
2023-05-22T18:48:28.219Z,14.15
2023-05-22T18:50:57.378Z,16.98
2023-05-22T18:53:25.300Z,11.88
2023-05-22T18:55:53.757Z,15.98
2023-05-22T18:58:20.648Z,11.07
2023-05-22T19:00:47.267Z,14.80
2023-05-22T19:03:14.116Z,11.68
2023-05-22T19:05:41.169Z,15.25
2023-05-22T19:08:07.747Z,12.35
2023-05-22T19:10:34.420Z,15.70
2023-05-22T19:13:01.006Z,13.32
2023-05-22T19:15:27.618Z,9.25
2023-05-22T19:17:54.145Z,10.77
2023-05-22T19:20:20.836Z,13.57
2023-05-22T19:22:47.391Z,12.93
2023-05-22T19:25:13.961Z,9.63
2023-05-22T19:27:40.484Z,12.07
2023-05-22T19:30:07.545Z,11.20
2023-05-22T19:32:34.247Z,13.55
2023-05-22T19:35:01.499Z,10.10
2023-05-22T19:37:28.059Z,10.77
2023-05-22T19:39:54.572Z,12.50
2023-05-22T19:42:21.110Z,9.13
2023-05-22T19:44:54.510Z,12.73
2023-05-22T19:47:21.057Z,10.45
2023-05-22T19:49:47.553Z,11.55
2023-05-22T19:52:14.025Z,10.73
2023-05-22T19:54:40.569Z,13.10
2023-05-22T19:57:07.238Z,12.63
2023-05-22T19:59:36.413Z,10.77
2023-05-22T20:02:03.319Z,12.05
2023-05-22T20:04:30.409Z,11.43
2023-05-22T20:06:58.724Z,11.40
2023-05-22T20:09:26.940Z,12.50
2023-05-22T20:11:53.607Z,11.35
2023-05-22T20:14:20.133Z,13.98
2023-05-22T20:16:46.671Z,11.80
2023-05-22T20:19:14.799Z,11.10
2023-05-22T20:21:41.471Z,12.52
2023-05-22T20:24:21.010Z,11.30
2023-05-22T20:26:50.496Z,11.88
2023-05-22T20:29:20.443Z,10.57
2023-05-22T20:31:50.301Z,11.45
2023-05-22T20:34:19.891Z,10.73
2023-05-22T20:36:46.628Z,11.02
2023-05-22T20:39:13.543Z,11.45
2023-05-22T20:41:40.179Z,9.68
2023-05-22T20:44:06.804Z,11.70
2023-05-22T20:46:33.801Z,11.38
2023-05-22T20:49:03.425Z,10.30
2023-05-22T20:51:32.575Z,10.50
2023-05-22T20:53:59.873Z,8.95
2023-05-22T20:56:27.175Z,11.05
2023-05-22T20:58:54.700Z,11.93
2023-05-22T21:01:21.409Z,8.82
2023-05-22T21:03:49.854Z,9.98
2023-05-22T21:06:16.450Z,9.70
2023-05-22T21:08:42.909Z,9.23
2023-05-22T21:11:09.485Z,8.88
2023-05-22T21:13:36.352Z,10.82
2023-05-22T21:16:02.884Z,8.98
2023-05-22T21:18:29.389Z,8.85
2023-05-22T21:20:55.851Z,9.35
2023-05-22T21:23:24.539Z,10.15
2023-05-22T21:25:51.413Z,10.05
2023-05-22T21:28:17.889Z,10.77
2023-05-22T21:30:44.464Z,10.73
2023-05-22T21:33:12.026Z,9.70
2023-05-22T21:35:38.535Z,10.20
2023-05-22T21:38:05.069Z,8.90
2023-05-22T21:40:31.605Z,9.27
2023-05-22T21:42:58.124Z,13.60
2023-05-22T21:45:24.626Z,9.63
2023-05-22T21:47:51.282Z,12.85
2023-05-22T21:50:17.970Z,8.68
2023-05-22T21:52:44.511Z,13.88
2023-05-22T21:55:11.139Z,10.07
2023-05-22T21:57:37.710Z,10.63
2023-05-22T22:00:04.525Z,10.05
2023-05-22T22:02:31.248Z,9.07
2023-05-22T22:04:57.771Z,10.30
2023-05-22T22:07:24.268Z,10.50
2023-05-22T22:09:50.861Z,8.85
2023-05-22T22:12:17.392Z,9.73
2023-05-22T22:14:43.931Z,11.40
2023-05-22T22:17:10.452Z,8.88
2023-05-22T22:19:37.087Z,9.60
2023-05-22T22:22:03.996Z,10.52
2023-05-22T22:24:30.532Z,11.75
2023-05-22T22:26:57.166Z,9.40
2023-05-22T22:29:23.741Z,11.27
2023-05-22T22:31:50.486Z,9.43
2023-05-22T22:34:17.199Z,11.40
2023-05-22T22:36:43.998Z,10.32
2023-05-22T22:39:11.184Z,11.23
2023-05-22T22:41:37.895Z,10.93
2023-05-22T22:44:04.507Z,9.70
2023-05-22T22:46:31.318Z,9.25
2023-05-22T22:49:01.828Z,9.05
2023-05-22T22:51:31.630Z,10.60
2023-05-22T22:53:58.443Z,11.55
2023-05-22T22:56:29.242Z,13.57
2023-05-22T22:58:57.106Z,9.23
2023-05-22T23:01:24.011Z,10.73
2023-05-22T23:03:50.942Z,9.13
2023-05-22T23:06:18.230Z,9.50
2023-05-22T23:08:44.803Z,9.45
2023-05-22T23:11:11.343Z,12.02
2023-05-22T23:13:40.433Z,14.05
2023-05-22T23:16:07.042Z,9.35
2023-05-22T23:18:33.576Z,9.38
2023-05-22T23:21:00.150Z,9.80
2023-05-22T23:23:27.907Z,10.02
2023-05-22T23:25:55.319Z,9.27
2023-05-22T23:28:22.627Z,9.93
2023-05-22T23:30:49.194Z,10.38
2023-05-22T23:33:16.038Z,11.98
2023-05-22T23:35:42.662Z,8.63
2023-05-22T23:38:09.224Z,10.68
2023-05-22T23:40:35.781Z,10.02
2023-05-22T23:43:02.346Z,11.55
2023-05-22T23:45:28.881Z,10.43
2023-05-22T23:47:55.440Z,9.57
2023-05-22T23:50:21.948Z,11.00
2023-05-22T23:52:48.591Z,8.98
2023-05-22T23:55:15.661Z,8.93
2023-05-22T23:57:42.249Z,8.60
